sensor_id;sensor_type;location;lat;lon;timestamp;temperature;humidity
42095;DHT22;27753;55.724;37.612;2024-02-16T00:01:01;-6.60;99.00
42095;DHT22;27753;55.724;37.612;2024-02-16T00:03:27;-6.60;99.10
42095;DHT22;27753;55.724;37.612;2024-02-16T00:05:53;-6.60;99.10
42095;DHT22;27753;55.724;37.612;2024-02-16T00:08:20;-6.60;99.20
42095;DHT22;27753;55.724;37.612;2024-02-16T00:10:46;-6.60;99.30
42095;DHT22;27753;55.724;37.612;2024-02-16T00:13:13;-6.60;99.40
42095;DHT22;27753;55.724;37.612;2024-02-16T00:15:39;-6.60;99.40
42095;DHT22;27753;55.724;37.612;2024-02-16T00:18:06;-6.60;99.50
42095;DHT22;27753;55.724;37.612;2024-02-16T00:20:32;-6.60;99.40
42095;DHT22;27753;55.724;37.612;2024-02-16T00:22:58;-6.60;99.40
42095;DHT22;27753;55.724;37.612;2024-02-16T00:25:25;-6.60;99.30
42095;DHT22;27753;55.724;37.612;2024-02-16T00:27:51;-6.60;99.20
42095;DHT22;27753;55.724;37.612;2024-02-16T00:30:20;-6.60;99.20
42095;DHT22;27753;55.724;37.612;2024-02-16T00:32:47;-6.60;99.20
42095;DHT22;27753;55.724;37.612;2024-02-16T00:35:14;-6.70;99.10
42095;DHT22;27753;55.724;37.612;2024-02-16T00:37:42;-6.60;99.10
42095;DHT22;27753;55.724;37.612;2024-02-16T00:40:08;-6.60;99.10
42095;DHT22;27753;55.724;37.612;2024-02-16T00:42:34;-6.60;99.10
42095;DHT22;27753;55.724;37.612;2024-02-16T00:45:00;-6.60;99.10
42095;DHT22;27753;55.724;37.612;2024-02-16T00:47:26;-6.60;99.00
42095;DHT22;27753;55.724;37.612;2024-02-16T00:49:55;-6.70;98.90
42095;DHT22;27753;55.724;37.612;2024-02-16T00:52:22;-6.70;98.80
42095;DHT22;27753;55.724;37.612;2024-02-16T00:54:48;-6.70;98.80
42095;DHT22;27753;55.724;37.612;2024-02-16T00:57:14;-6.60;99.00
42095;DHT22;27753;55.724;37.612;2024-02-16T00:59:41;-6.60;99.10
42095;DHT22;27753;55.724;37.612;2024-02-16T01:02:07;-6.60;99.30
42095;DHT22;27753;55.724;37.612;2024-02-16T01:04:33;-6.60;99.10
42095;DHT22;27753;55.724;37.612;2024-02-16T01:06:59;-6.60;99.00
42095;DHT22;27753;55.724;37.612;2024-02-16T01:09:25;-6.60;98.90
42095;DHT22;27753;55.724;37.612;2024-02-16T01:11:52;-6.70;98.80
42095;DHT22;27753;55.724;37.612;2024-02-16T01:14:18;-6.70;98.70
42095;DHT22;27753;55.724;37.612;2024-02-16T01:16:45;-6.70;99.00
42095;DHT22;27753;55.724;37.612;2024-02-16T01:19:11;-6.70;99.00
42095;DHT22;27753;55.724;37.612;2024-02-16T01:21:38;-6.60;99.00
42095;DHT22;27753;55.724;37.612;2024-02-16T01:24:04;-6.60;99.00
42095;DHT22;27753;55.724;37.612;2024-02-16T01:26:31;-6.70;99.10
42095;DHT22;27753;55.724;37.612;2024-02-16T01:28:58;-6.60;99.20
42095;DHT22;27753;55.724;37.612;2024-02-16T01:31:24;-6.60;99.20
42095;DHT22;27753;55.724;37.612;2024-02-16T01:33:50;-6.60;99.10
42095;DHT22;27753;55.724;37.612;2024-02-16T01:36:15;-6.60;99.00
42095;DHT22;27753;55.724;37.612;2024-02-16T01:38:41;-6.60;99.00
42095;DHT22;27753;55.724;37.612;2024-02-16T01:41:07;-6.60;99.00
42095;DHT22;27753;55.724;37.612;2024-02-16T01:43:34;-6.60;98.90
42095;DHT22;27753;55.724;37.612;2024-02-16T01:46:00;-6.60;98.80
42095;DHT22;27753;55.724;37.612;2024-02-16T01:48:27;-6.60;98.70
42095;DHT22;27753;55.724;37.612;2024-02-16T01:50:53;-6.60;98.60
42095;DHT22;27753;55.724;37.612;2024-02-16T01:53:20;-6.60;98.70
42095;DHT22;27753;55.724;37.612;2024-02-16T01:55:47;-6.60;98.70
42095;DHT22;27753;55.724;37.612;2024-02-16T01:58:13;-6.50;98.80
42095;DHT22;27753;55.724;37.612;2024-02-16T02:00:42;-6.50;99.00
42095;DHT22;27753;55.724;37.612;2024-02-16T02:03:08;-6.50;98.90
42095;DHT22;27753;55.724;37.612;2024-02-16T02:05:34;-6.50;98.80
42095;DHT22;27753;55.724;37.612;2024-02-16T02:08:09;-6.50;98.70
42095;DHT22;27753;55.724;37.612;2024-02-16T02:10:37;-6.50;98.60
42095;DHT22;27753;55.724;37.612;2024-02-16T02:13:03;-6.50;98.60
42095;DHT22;27753;55.724;37.612;2024-02-16T02:15:29;-6.50;98.40
42095;DHT22;27753;55.724;37.612;2024-02-16T02:17:55;-6.50;98.40
42095;DHT22;27753;55.724;37.612;2024-02-16T02:20:23;-6.50;98.40
42095;DHT22;27753;55.724;37.612;2024-02-16T02:22:49;-6.50;98.30
42095;DHT22;27753;55.724;37.612;2024-02-16T02:25:15;-6.50;98.20
42095;DHT22;27753;55.724;37.612;2024-02-16T02:27:41;-6.50;98.20
42095;DHT22;27753;55.724;37.612;2024-02-16T02:30:08;-6.50;98.30
42095;DHT22;27753;55.724;37.612;2024-02-16T02:32:34;-6.50;98.30
42095;DHT22;27753;55.724;37.612;2024-02-16T02:35:01;-6.50;98.40
42095;DHT22;27753;55.724;37.612;2024-02-16T02:37:27;-6.40;98.50
42095;DHT22;27753;55.724;37.612;2024-02-16T02:39:53;-6.40;98.50
42095;DHT22;27753;55.724;37.612;2024-02-16T02:42:19;-6.40;98.40
42095;DHT22;27753;55.724;37.612;2024-02-16T02:44:45;-6.40;98.40
42095;DHT22;27753;55.724;37.612;2024-02-16T02:47:16;-6.40;98.20
42095;DHT22;27753;55.724;37.612;2024-02-16T02:49:43;-6.40;98.20
42095;DHT22;27753;55.724;37.612;2024-02-16T02:52:09;-6.40;98.10
42095;DHT22;27753;55.724;37.612;2024-02-16T02:54:35;-6.50;98.10
42095;DHT22;27753;55.724;37.612;2024-02-16T02:57:02;-6.50;98.10
42095;DHT22;27753;55.724;37.612;2024-02-16T02:59:28;-6.50;98.00
42095;DHT22;27753;55.724;37.612;2024-02-16T03:01:54;-6.50;98.10
42095;DHT22;27753;55.724;37.612;2024-02-16T03:04:20;-6.40;98.30
42095;DHT22;27753;55.724;37.612;2024-02-16T03:06:46;-6.40;98.30
42095;DHT22;27753;55.724;37.612;2024-02-16T03:09:12;-6.40;98.20
42095;DHT22;27753;55.724;37.612;2024-02-16T03:11:41;-6.40;98.20
42095;DHT22;27753;55.724;37.612;2024-02-16T03:14:07;-6.50;98.00
42095;DHT22;27753;55.724;37.612;2024-02-16T03:16:33;-6.40;98.10
42095;DHT22;27753;55.724;37.612;2024-02-16T03:18:59;-6.40;98.20
42095;DHT22;27753;55.724;37.612;2024-02-16T03:21:25;-6.40;98.30
42095;DHT22;27753;55.724;37.612;2024-02-16T03:23:51;-6.40;98.40
42095;DHT22;27753;55.724;37.612;2024-02-16T03:26:19;-6.40;98.30
42095;DHT22;27753;55.724;37.612;2024-02-16T03:28:46;-6.40;98.30
42095;DHT22;27753;55.724;37.612;2024-02-16T03:31:19;-6.40;98.20
42095;DHT22;27753;55.724;37.612;2024-02-16T03:33:46;-6.40;98.50
42095;DHT22;27753;55.724;37.612;2024-02-16T03:36:13;-6.40;98.30
42095;DHT22;27753;55.724;37.612;2024-02-16T03:38:43;-6.40;98.30
42095;DHT22;27753;55.724;37.612;2024-02-16T03:41:21;-6.40;98.20
42095;DHT22;27753;55.724;37.612;2024-02-16T03:43:47;-6.40;98.20
42095;DHT22;27753;55.724;37.612;2024-02-16T03:46:13;-6.40;98.40
42095;DHT22;27753;55.724;37.612;2024-02-16T03:48:39;-6.40;98.40
42095;DHT22;27753;55.724;37.612;2024-02-16T03:51:05;-6.40;98.30
42095;DHT22;27753;55.724;37.612;2024-02-16T03:53:31;-6.40;98.40
42095;DHT22;27753;55.724;37.612;2024-02-16T03:55:57;-6.40;98.30
42095;DHT22;27753;55.724;37.612;2024-02-16T03:58:24;-6.40;98.20
42095;DHT22;27753;55.724;37.612;2024-02-16T04:00:50;-6.40;98.20
42095;DHT22;27753;55.724;37.612;2024-02-16T04:03:16;-6.40;98.30
42095;DHT22;27753;55.724;37.612;2024-02-16T04:05:42;-6.40;98.20
42095;DHT22;27753;55.724;37.612;2024-02-16T04:08:08;-6.40;98.30
42095;DHT22;27753;55.724;37.612;2024-02-16T04:10:34;-6.40;98.30
42095;DHT22;27753;55.724;37.612;2024-02-16T04:13:01;-6.40;98.50
42095;DHT22;27753;55.724;37.612;2024-02-16T04:15:27;-6.40;98.80
42095;DHT22;27753;55.724;37.612;2024-02-16T04:17:53;-6.40;98.70
42095;DHT22;27753;55.724;37.612;2024-02-16T04:20:20;-6.40;98.70
42095;DHT22;27753;55.724;37.612;2024-02-16T04:22:46;-6.40;98.70
42095;DHT22;27753;55.724;37.612;2024-02-16T04:25:12;-6.40;98.80
42095;DHT22;27753;55.724;37.612;2024-02-16T04:27:38;-6.40;98.80
42095;DHT22;27753;55.724;37.612;2024-02-16T04:30:04;-6.40;98.80
42095;DHT22;27753;55.724;37.612;2024-02-16T04:32:31;-6.50;98.70
42095;DHT22;27753;55.724;37.612;2024-02-16T04:34:57;-6.40;98.80
42095;DHT22;27753;55.724;37.612;2024-02-16T04:37:23;-6.50;99.00
42095;DHT22;27753;55.724;37.612;2024-02-16T04:39:49;-6.50;99.10
42095;DHT22;27753;55.724;37.612;2024-02-16T04:42:16;-6.40;99.10
42095;DHT22;27753;55.724;37.612;2024-02-16T04:44:42;-6.50;98.90
42095;DHT22;27753;55.724;37.612;2024-02-16T04:47:08;-6.50;98.90
42095;DHT22;27753;55.724;37.612;2024-02-16T04:49:35;-6.50;98.80
42095;DHT22;27753;55.724;37.612;2024-02-16T04:52:01;-6.50;98.90
42095;DHT22;27753;55.724;37.612;2024-02-16T04:54:27;-6.50;98.90
42095;DHT22;27753;55.724;37.612;2024-02-16T04:56:53;-6.50;98.80
42095;DHT22;27753;55.724;37.612;2024-02-16T04:59:19;-6.50;98.80
42095;DHT22;27753;55.724;37.612;2024-02-16T05:01:44;-6.50;98.70
42095;DHT22;27753;55.724;37.612;2024-02-16T05:04:11;-6.50;98.60
42095;DHT22;27753;55.724;37.612;2024-02-16T05:06:39;-6.50;98.60
42095;DHT22;27753;55.724;37.612;2024-02-16T05:09:06;-6.50;98.60
42095;DHT22;27753;55.724;37.612;2024-02-16T05:11:35;-6.50;98.70
42095;DHT22;27753;55.724;37.612;2024-02-16T05:14:03;-6.40;98.90
42095;DHT22;27753;55.724;37.612;2024-02-16T05:16:29;-6.40;99.00
42095;DHT22;27753;55.724;37.612;2024-02-16T05:18:55;-6.40;99.00
42095;DHT22;27753;55.724;37.612;2024-02-16T05:21:24;-6.40;98.90
42095;DHT22;27753;55.724;37.612;2024-02-16T05:23:50;-6.40;98.90
42095;DHT22;27753;55.724;37.612;2024-02-16T05:26:16;-6.40;98.80
42095;DHT22;27753;55.724;37.612;2024-02-16T05:28:42;-6.40;98.80
42095;DHT22;27753;55.724;37.612;2024-02-16T05:31:16;-6.40;98.70
42095;DHT22;27753;55.724;37.612;2024-02-16T05:33:44;-6.40;98.60
42095;DHT22;27753;55.724;37.612;2024-02-16T05:36:10;-6.40;98.70
42095;DHT22;27753;55.724;37.612;2024-02-16T05:38:37;-6.40;99.00
42095;DHT22;27753;55.724;37.612;2024-02-16T05:41:07;-6.30;99.20
42095;DHT22;27753;55.724;37.612;2024-02-16T05:43:34;-6.30;99.10
42095;DHT22;27753;55.724;37.612;2024-02-16T05:46:00;-6.40;99.10
42095;DHT22;27753;55.724;37.612;2024-02-16T05:48:26;-6.30;99.10
42095;DHT22;27753;55.724;37.612;2024-02-16T05:51:02;-6.30;99.00
42095;DHT22;27753;55.724;37.612;2024-02-16T05:53:28;-6.30;98.90
42095;DHT22;27753;55.724;37.612;2024-02-16T05:55:54;-6.30;98.80
42095;DHT22;27753;55.724;37.612;2024-02-16T05:58:21;-6.30;98.50
42095;DHT22;27753;55.724;37.612;2024-02-16T06:00:46;-6.30;98.40
42095;DHT22;27753;55.724;37.612;2024-02-16T06:03:14;-6.20;98.60
42095;DHT22;27753;55.724;37.612;2024-02-16T06:05:40;-6.20;98.70
42095;DHT22;27753;55.724;37.612;2024-02-16T06:08:06;-6.20;98.60
42095;DHT22;27753;55.724;37.612;2024-02-16T06:10:33;-6.20;98.60
42095;DHT22;27753;55.724;37.612;2024-02-16T06:12:59;-6.20;98.60
42095;DHT22;27753;55.724;37.612;2024-02-16T06:15:25;-6.20;98.40
42095;DHT22;27753;55.724;37.612;2024-02-16T06:17:52;-6.20;98.30
42095;DHT22;27753;55.724;37.612;2024-02-16T06:20:18;-6.20;98.30
42095;DHT22;27753;55.724;37.612;2024-02-16T06:22:44;-6.10;98.30
42095;DHT22;27753;55.724;37.612;2024-02-16T06:25:10;-6.10;98.40
42095;DHT22;27753;55.724;37.612;2024-02-16T06:27:36;-6.10;98.20
42095;DHT22;27753;55.724;37.612;2024-02-16T06:30:03;-6.10;98.20
42095;DHT22;27753;55.724;37.612;2024-02-16T06:32:33;-6.00;98.30
42095;DHT22;27753;55.724;37.612;2024-02-16T06:34:59;-6.00;98.40
42095;DHT22;27753;55.724;37.612;2024-02-16T06:37:25;-6.00;98.50
42095;DHT22;27753;55.724;37.612;2024-02-16T06:39:51;-5.90;98.40
42095;DHT22;27753;55.724;37.612;2024-02-16T06:42:16;-5.90;98.30
42095;DHT22;27753;55.724;37.612;2024-02-16T06:44:42;-5.90;98.30
42095;DHT22;27753;55.724;37.612;2024-02-16T06:47:08;-5.80;98.20
42095;DHT22;27753;55.724;37.612;2024-02-16T06:49:34;-5.80;98.10
42095;DHT22;27753;55.724;37.612;2024-02-16T06:52:00;-5.80;98.10
42095;DHT22;27753;55.724;37.612;2024-02-16T06:54:26;-5.80;98.00
42095;DHT22;27753;55.724;37.612;2024-02-16T06:56:51;-5.70;98.00
42095;DHT22;27753;55.724;37.612;2024-02-16T06:59:18;-5.70;98.00
42095;DHT22;27753;55.724;37.612;2024-02-16T07:01:44;-5.70;98.00
42095;DHT22;27753;55.724;37.612;2024-02-16T07:04:09;-5.60;97.80
42095;DHT22;27753;55.724;37.612;2024-02-16T07:06:35;-5.60;97.70
42095;DHT22;27753;55.724;37.612;2024-02-16T07:09:01;-5.60;97.60
42095;DHT22;27753;55.724;37.612;2024-02-16T07:11:30;-5.60;97.50
42095;DHT22;27753;55.724;37.612;2024-02-16T07:13:56;-5.60;97.30
42095;DHT22;27753;55.724;37.612;2024-02-16T07:16:22;-5.60;96.60
42095;DHT22;27753;55.724;37.612;2024-02-16T07:18:47;-5.70;96.60
42095;DHT22;27753;55.724;37.612;2024-02-16T07:21:13;-5.70;96.90
42095;DHT22;27753;55.724;37.612;2024-02-16T07:23:39;-5.70;97.00
42095;DHT22;27753;55.724;37.612;2024-02-16T07:26:05;-5.60;97.10
42095;DHT22;27753;55.724;37.612;2024-02-16T07:28:32;-5.60;97.30
42095;DHT22;27753;55.724;37.612;2024-02-16T07:30:58;-5.60;97.30
42095;DHT22;27753;55.724;37.612;2024-02-16T07:33:24;-5.60;97.30
42095;DHT22;27753;55.724;37.612;2024-02-16T07:35:51;-5.60;97.40
42095;DHT22;27753;55.724;37.612;2024-02-16T07:38:17;-5.50;97.40
42095;DHT22;27753;55.724;37.612;2024-02-16T07:40:43;-5.50;97.50
42095;DHT22;27753;55.724;37.612;2024-02-16T07:43:11;-5.40;97.50
42095;DHT22;27753;55.724;37.612;2024-02-16T07:45:37;-5.40;97.40
42095;DHT22;27753;55.724;37.612;2024-02-16T07:48:03;-5.40;97.30
42095;DHT22;27753;55.724;37.612;2024-02-16T07:50:31;-5.40;96.90
42095;DHT22;27753;55.724;37.612;2024-02-16T07:52:57;-5.40;96.80
42095;DHT22;27753;55.724;37.612;2024-02-16T07:55:23;-5.40;97.20
42095;DHT22;27753;55.724;37.612;2024-02-16T07:57:50;-5.30;97.50
42095;DHT22;27753;55.724;37.612;2024-02-16T08:00:17;-5.30;97.40
42095;DHT22;27753;55.724;37.612;2024-02-16T08:02:43;-5.30;97.10
42095;DHT22;27753;55.724;37.612;2024-02-16T08:05:12;-5.30;97.10
42095;DHT22;27753;55.724;37.612;2024-02-16T08:07:39;-5.30;97.10
42095;DHT22;27753;55.724;37.612;2024-02-16T08:10:08;-5.30;96.90
42095;DHT22;27753;55.724;37.612;2024-02-16T08:12:34;-5.30;96.80
42095;DHT22;27753;55.724;37.612;2024-02-16T08:15:04;-5.30;96.70
42095;DHT22;27753;55.724;37.612;2024-02-16T08:17:33;-5.30;96.70
42095;DHT22;27753;55.724;37.612;2024-02-16T08:19:59;-5.30;96.50
42095;DHT22;27753;55.724;37.612;2024-02-16T08:22:25;-5.30;96.60
42095;DHT22;27753;55.724;37.612;2024-02-16T08:24:51;-5.30;96.60
42095;DHT22;27753;55.724;37.612;2024-02-16T08:27:17;-5.30;97.10
42095;DHT22;27753;55.724;37.612;2024-02-16T08:29:44;-5.20;97.10
42095;DHT22;27753;55.724;37.612;2024-02-16T08:32:10;-5.20;97.40
42095;DHT22;27753;55.724;37.612;2024-02-16T08:34:36;-5.20;97.50
42095;DHT22;27753;55.724;37.612;2024-02-16T08:37:03;-5.10;97.40
42095;DHT22;27753;55.724;37.612;2024-02-16T08:39:30;-5.10;97.40
42095;DHT22;27753;55.724;37.612;2024-02-16T08:41:56;-5.10;97.40
42095;DHT22;27753;55.724;37.612;2024-02-16T08:44:25;-5.10;97.30
42095;DHT22;27753;55.724;37.612;2024-02-16T08:46:52;-5.00;97.40
42095;DHT22;27753;55.724;37.612;2024-02-16T08:49:19;-5.00;97.10
42095;DHT22;27753;55.724;37.612;2024-02-16T08:51:45;-5.00;97.20
42095;DHT22;27753;55.724;37.612;2024-02-16T08:54:11;-5.00;97.40
42095;DHT22;27753;55.724;37.612;2024-02-16T08:56:36;-5.00;97.40
42095;DHT22;27753;55.724;37.612;2024-02-16T08:59:05;-4.90;97.20
42095;DHT22;27753;55.724;37.612;2024-02-16T09:01:32;-4.90;97.00
42095;DHT22;27753;55.724;37.612;2024-02-16T09:03:58;-4.90;97.00
42095;DHT22;27753;55.724;37.612;2024-02-16T09:06:24;-4.90;97.40
42095;DHT22;27753;55.724;37.612;2024-02-16T09:08:53;-4.90;97.80
42095;DHT22;27753;55.724;37.612;2024-02-16T09:11:19;-4.90;97.50
42095;DHT22;27753;55.724;37.612;2024-02-16T09:13:45;-4.80;97.60
42095;DHT22;27753;55.724;37.612;2024-02-16T09:16:11;-4.80;97.80
42095;DHT22;27753;55.724;37.612;2024-02-16T09:18:37;-4.80;97.60
42095;DHT22;27753;55.724;37.612;2024-02-16T09:21:04;-4.80;97.80
42095;DHT22;27753;55.724;37.612;2024-02-16T09:23:30;-4.70;97.80
42095;DHT22;27753;55.724;37.612;2024-02-16T09:25:56;-4.70;97.80
42095;DHT22;27753;55.724;37.612;2024-02-16T09:28:22;-4.70;97.90
42095;DHT22;27753;55.724;37.612;2024-02-16T09:30:48;-4.70;97.80
42095;DHT22;27753;55.724;37.612;2024-02-16T09:33:14;-4.70;97.50
42095;DHT22;27753;55.724;37.612;2024-02-16T09:35:43;-4.70;97.30
42095;DHT22;27753;55.724;37.612;2024-02-16T09:38:09;-4.70;97.00
42095;DHT22;27753;55.724;37.612;2024-02-16T09:40:36;-4.70;96.90
42095;DHT22;27753;55.724;37.612;2024-02-16T09:43:02;-4.70;96.70
42095;DHT22;27753;55.724;37.612;2024-02-16T09:45:29;-4.70;96.70
42095;DHT22;27753;55.724;37.612;2024-02-16T09:47:57;-4.70;96.60
42095;DHT22;27753;55.724;37.612;2024-02-16T09:50:24;-4.60;96.60
42095;DHT22;27753;55.724;37.612;2024-02-16T09:52:50;-4.60;96.80
42095;DHT22;27753;55.724;37.612;2024-02-16T09:55:17;-4.50;96.80
42095;DHT22;27753;55.724;37.612;2024-02-16T09:57:46;-4.50;97.00
42095;DHT22;27753;55.724;37.612;2024-02-16T10:00:13;-4.40;97.00
42095;DHT22;27753;55.724;37.612;2024-02-16T10:02:46;-4.40;96.40
42095;DHT22;27753;55.724;37.612;2024-02-16T10:05:13;-4.40;96.40
42095;DHT22;27753;55.724;37.612;2024-02-16T10:07:39;-4.30;96.40
42095;DHT22;27753;55.724;37.612;2024-02-16T10:10:06;-4.30;96.30
42095;DHT22;27753;55.724;37.612;2024-02-16T10:12:31;-4.20;96.30
42095;DHT22;27753;55.724;37.612;2024-02-16T10:14:57;-4.10;96.30
42095;DHT22;27753;55.724;37.612;2024-02-16T10:17:26;-4.10;96.00
42095;DHT22;27753;55.724;37.612;2024-02-16T10:19:58;-4.00;96.10
42095;DHT22;27753;55.724;37.612;2024-02-16T10:22:24;-4.00;96.30
42095;DHT22;27753;55.724;37.612;2024-02-16T10:24:51;-4.00;95.80
42095;DHT22;27753;55.724;37.612;2024-02-16T10:27:17;-4.00;95.50
42095;DHT22;27753;55.724;37.612;2024-02-16T10:29:44;-4.00;95.70
42095;DHT22;27753;55.724;37.612;2024-02-16T10:32:16;-3.90;95.90
42095;DHT22;27753;55.724;37.612;2024-02-16T10:34:43;-3.90;96.30
42095;DHT22;27753;55.724;37.612;2024-02-16T10:37:11;-3.90;96.00
42095;DHT22;27753;55.724;37.612;2024-02-16T10:39:38;-3.90;96.10
42095;DHT22;27753;55.724;37.612;2024-02-16T10:42:05;-4.00;96.30
42095;DHT22;27753;55.724;37.612;2024-02-16T10:44:32;-4.00;96.20
42095;DHT22;27753;55.724;37.612;2024-02-16T10:46:59;-4.00;96.00
42095;DHT22;27753;55.724;37.612;2024-02-16T10:49:25;-4.00;95.70
42095;DHT22;27753;55.724;37.612;2024-02-16T10:51:54;-4.00;95.70
42095;DHT22;27753;55.724;37.612;2024-02-16T10:54:27;-4.00;96.00
42095;DHT22;27753;55.724;37.612;2024-02-16T10:56:55;-4.10;95.40
42095;DHT22;27753;55.724;37.612;2024-02-16T10:59:21;-4.10;95.20
42095;DHT22;27753;55.724;37.612;2024-02-16T11:01:46;-4.10;95.30
42095;DHT22;27753;55.724;37.612;2024-02-16T11:04:17;-4.10;95.40
42095;DHT22;27753;55.724;37.612;2024-02-16T11:06:46;-4.10;95.70
42095;DHT22;27753;55.724;37.612;2024-02-16T11:09:35;-4.10;95.20
42095;DHT22;27753;55.724;37.612;2024-02-16T11:12:03;-4.10;95.40
42095;DHT22;27753;55.724;37.612;2024-02-16T11:14:35;-4.10;95.70
42095;DHT22;27753;55.724;37.612;2024-02-16T11:17:07;-4.10;95.80
42095;DHT22;27753;55.724;37.612;2024-02-16T11:19:34;-4.10;96.00
42095;DHT22;27753;55.724;37.612;2024-02-16T11:22:03;-4.10;96.00
42095;DHT22;27753;55.724;37.612;2024-02-16T11:24:33;-4.10;95.70
42095;DHT22;27753;55.724;37.612;2024-02-16T11:27:02;-4.10;95.50
42095;DHT22;27753;55.724;37.612;2024-02-16T11:29:36;-4.10;96.10
42095;DHT22;27753;55.724;37.612;2024-02-16T11:32:04;-4.00;96.30
42095;DHT22;27753;55.724;37.612;2024-02-16T11:34:31;-4.00;96.10
42095;DHT22;27753;55.724;37.612;2024-02-16T11:36:59;-3.90;96.20
42095;DHT22;27753;55.724;37.612;2024-02-16T11:39:25;-3.90;96.10
42095;DHT22;27753;55.724;37.612;2024-02-16T17:14:50;-3.90;96.20
42095;DHT22;27753;55.724;37.612;2024-02-16T17:17:16;-5.00;97.20
42095;DHT22;27753;55.724;37.612;2024-02-16T17:19:41;-5.00;97.80
42095;DHT22;27753;55.724;37.612;2024-02-16T17:22:10;-5.00;97.80
42095;DHT22;27753;55.724;37.612;2024-02-16T17:24:36;-5.00;97.70
42095;DHT22;27753;55.724;37.612;2024-02-16T17:27:02;-5.00;97.60
42095;DHT22;27753;55.724;37.612;2024-02-16T17:29:29;-5.00;97.50
42095;DHT22;27753;55.724;37.612;2024-02-16T17:31:56;-5.10;97.50
42095;DHT22;27753;55.724;37.612;2024-02-16T17:34:24;-5.10;97.30
42095;DHT22;27753;55.724;37.612;2024-02-16T17:36:51;-5.10;97.30
42095;DHT22;27753;55.724;37.612;2024-02-16T17:39:17;-5.00;97.30
42095;DHT22;27753;55.724;37.612;2024-02-16T17:41:43;-5.00;97.10
42095;DHT22;27753;55.724;37.612;2024-02-16T17:44:09;-5.10;96.80
42095;DHT22;27753;55.724;37.612;2024-02-16T17:46:35;-5.00;96.80
42095;DHT22;27753;55.724;37.612;2024-02-16T17:49:01;-5.00;97.00
42095;DHT22;27753;55.724;37.612;2024-02-16T17:51:28;-5.00;96.70
42095;DHT22;27753;55.724;37.612;2024-02-16T17:53:54;-5.00;96.80
42095;DHT22;27753;55.724;37.612;2024-02-16T17:56:20;-5.00;97.40
42095;DHT22;27753;55.724;37.612;2024-02-16T17:58:46;-5.00;97.70
42095;DHT22;27753;55.724;37.612;2024-02-16T18:01:12;-5.00;97.90
42095;DHT22;27753;55.724;37.612;2024-02-16T18:03:39;-5.00;97.80
42095;DHT22;27753;55.724;37.612;2024-02-16T18:06:06;-5.00;97.90
42095;DHT22;27753;55.724;37.612;2024-02-16T18:08:32;-5.00;98.10
42095;DHT22;27753;55.724;37.612;2024-02-16T18:10:58;-5.00;98.30
42095;DHT22;27753;55.724;37.612;2024-02-16T18:13:24;-5.00;98.10
42095;DHT22;27753;55.724;37.612;2024-02-16T18:15:50;-5.00;97.70
42095;DHT22;27753;55.724;37.612;2024-02-16T18:18:16;-5.10;97.40
42095;DHT22;27753;55.724;37.612;2024-02-16T18:20:45;-5.10;97.20
42095;DHT22;27753;55.724;37.612;2024-02-16T18:23:11;-5.10;97.10
42095;DHT22;27753;55.724;37.612;2024-02-16T18:25:37;-5.10;97.00
42095;DHT22;27753;55.724;37.612;2024-02-16T18:28:03;-5.10;97.40
42095;DHT22;27753;55.724;37.612;2024-02-16T18:30:29;-5.00;97.80
42095;DHT22;27753;55.724;37.612;2024-02-16T18:32:55;-5.00;97.60
42095;DHT22;27753;55.724;37.612;2024-02-16T18:35:21;-5.10;97.50
42095;DHT22;27753;55.724;37.612;2024-02-16T18:37:47;-5.00;97.30
42095;DHT22;27753;55.724;37.612;2024-02-16T18:40:13;-5.00;97.40
42095;DHT22;27753;55.724;37.612;2024-02-16T18:42:39;-5.00;97.60
42095;DHT22;27753;55.724;37.612;2024-02-16T18:45:06;-5.00;97.60
42095;DHT22;27753;55.724;37.612;2024-02-16T18:47:35;-5.00;97.40
42095;DHT22;27753;55.724;37.612;2024-02-16T18:50:05;-5.00;97.20
42095;DHT22;27753;55.724;37.612;2024-02-16T18:52:31;-5.00;97.00
42095;DHT22;27753;55.724;37.612;2024-02-16T18:54:58;-5.00;97.10
42095;DHT22;27753;55.724;37.612;2024-02-16T18:57:24;-5.00;97.10
42095;DHT22;27753;55.724;37.612;2024-02-16T18:59:50;-5.00;96.80
42095;DHT22;27753;55.724;37.612;2024-02-16T19:02:16;-5.00;96.50
42095;DHT22;27753;55.724;37.612;2024-02-16T19:04:42;-5.00;97.00
42095;DHT22;27753;55.724;37.612;2024-02-16T19:07:08;-5.00;97.00
42095;DHT22;27753;55.724;37.612;2024-02-16T19:09:35;-5.00;97.00
42095;DHT22;27753;55.724;37.612;2024-02-16T19:12:01;-5.00;97.30
42095;DHT22;27753;55.724;37.612;2024-02-16T19:14:27;-5.00;97.10
42095;DHT22;27753;55.724;37.612;2024-02-16T19:16:55;-5.00;96.90
42095;DHT22;27753;55.724;37.612;2024-02-16T19:19:21;-5.00;96.70
42095;DHT22;27753;55.724;37.612;2024-02-16T19:21:47;-5.00;96.70
42095;DHT22;27753;55.724;37.612;2024-02-16T19:24:16;-5.00;97.00
42095;DHT22;27753;55.724;37.612;2024-02-16T19:26:42;-4.90;97.00
42095;DHT22;27753;55.724;37.612;2024-02-16T19:29:08;-4.90;96.90
42095;DHT22;27753;55.724;37.612;2024-02-16T19:31:36;-5.00;96.90
42095;DHT22;27753;55.724;37.612;2024-02-16T19:34:05;-4.90;96.90
42095;DHT22;27753;55.724;37.612;2024-02-16T19:36:31;-4.90;97.10
42095;DHT22;27753;55.724;37.612;2024-02-16T19:38:57;-4.90;97.40
42095;DHT22;27753;55.724;37.612;2024-02-16T19:41:25;-4.90;97.30
42095;DHT22;27753;55.724;37.612;2024-02-16T19:43:51;-4.90;97.30
42095;DHT22;27753;55.724;37.612;2024-02-16T19:46:20;-4.90;97.10
42095;DHT22;27753;55.724;37.612;2024-02-16T19:48:45;-4.90;97.20
42095;DHT22;27753;55.724;37.612;2024-02-16T19:51:12;-4.90;97.20
42095;DHT22;27753;55.724;37.612;2024-02-16T19:53:38;-4.90;97.30
42095;DHT22;27753;55.724;37.612;2024-02-16T19:56:05;-4.90;97.50
42095;DHT22;27753;55.724;37.612;2024-02-16T19:58:33;-4.90;97.70
42095;DHT22;27753;55.724;37.612;2024-02-16T20:00:59;-4.90;97.60
42095;DHT22;27753;55.724;37.612;2024-02-16T20:03:28;-4.90;97.40
42095;DHT22;27753;55.724;37.612;2024-02-16T20:05:54;-4.90;97.30
42095;DHT22;27753;55.724;37.612;2024-02-16T20:08:22;-4.90;97.60
42095;DHT22;27753;55.724;37.612;2024-02-16T20:10:47;-4.90;97.80
42095;DHT22;27753;55.724;37.612;2024-02-16T20:13:13;-4.90;97.80
42095;DHT22;27753;55.724;37.612;2024-02-16T20:15:39;-4.90;97.90
42095;DHT22;27753;55.724;37.612;2024-02-16T20:18:09;-4.90;98.10
42095;DHT22;27753;55.724;37.612;2024-02-16T20:20:37;-4.90;98.40
42095;DHT22;27753;55.724;37.612;2024-02-16T20:23:03;-4.90;98.70
42095;DHT22;27753;55.724;37.612;2024-02-16T20:25:29;-4.90;98.80
42095;DHT22;27753;55.724;37.612;2024-02-16T20:27:56;-5.00;98.90
42095;DHT22;27753;55.724;37.612;2024-02-16T20:30:23;-5.00;98.90
42095;DHT22;27753;55.724;37.612;2024-02-16T20:32:50;-5.00;98.80
42095;DHT22;27753;55.724;37.612;2024-02-16T20:35:19;-5.00;98.80
42095;DHT22;27753;55.724;37.612;2024-02-16T20:37:45;-5.10;98.80
42095;DHT22;27753;55.724;37.612;2024-02-16T20:40:11;-5.10;98.50
42095;DHT22;27753;55.724;37.612;2024-02-16T20:42:37;-5.10;98.40
42095;DHT22;27753;55.724;37.612;2024-02-16T20:45:04;-5.10;98.40